createdAt,value
2023-02-24T08:06:50.395Z,48.53
2023-02-24T08:11:04.177Z,49.83
2023-02-24T08:16:20.259Z,39.15
2023-02-24T08:18:50.345Z,48.72
2023-02-24T08:21:19.763Z,50.22
2023-02-24T08:23:48.159Z,42.78
2023-02-24T08:26:16.087Z,45.42
2023-02-24T08:28:43.798Z,40.85
2023-02-24T08:31:12.783Z,45.67
2023-02-24T08:33:40.226Z,36.75
2023-02-24T08:36:07.597Z,38.38
2023-02-24T08:38:44.676Z,40.85
2023-02-24T08:41:18.413Z,38.03
2023-02-24T08:43:48.308Z,35.53
2023-02-24T08:46:26.355Z,41.45
2023-02-24T08:49:02.657Z,41.67
2023-02-24T08:51:43.713Z,38.13
2023-02-24T08:54:49.196Z,41.60
2023-02-24T08:57:18.196Z,36.85
2023-02-24T08:59:50.139Z,37.67
2023-02-24T09:02:24.912Z,33.00
2023-02-24T09:05:12.471Z,35.33
2023-02-24T09:07:43.294Z,38.42
2023-02-24T09:10:20.350Z,43.72
2023-02-24T09:12:49.166Z,33.67
2023-02-24T09:15:16.617Z,35.92
2023-02-24T09:17:45.706Z,35.22
2023-02-24T09:20:42.136Z,34.70
2023-02-24T09:23:20.138Z,36.40
2023-02-24T09:25:54.267Z,34.95
2023-02-24T09:28:25.810Z,32.30
2023-02-24T09:31:04.796Z,43.28
2023-02-24T09:33:42.078Z,35.63
2023-02-24T09:36:28.369Z,27.38
2023-02-24T09:39:02.989Z,27.70
2023-02-24T09:41:54.807Z,28.98
2023-02-24T09:44:44.940Z,24.55
2023-02-24T09:47:51.317Z,20.98
2023-02-24T09:51:04.647Z,22.17
2023-02-24T09:53:49.286Z,22.25
2023-02-24T09:56:42.579Z,23.33
2023-02-24T09:59:40.762Z,18.67
2023-02-24T10:02:59.994Z,21.38
2023-02-24T10:06:12.193Z,22.27
2023-02-24T10:08:51.933Z,21.50
2023-02-24T10:11:33.194Z,28.33
2023-02-24T10:14:09.665Z,21.85
2023-02-24T10:16:44.396Z,20.77
2023-02-24T10:19:30.667Z,23.13
2023-02-24T10:22:27.535Z,23.40
2023-02-24T10:25:27.242Z,20.17
2023-02-24T10:28:20.149Z,23.10
2023-02-24T10:31:26.563Z,21.63
2023-02-24T10:34:08.728Z,18.65
2023-02-24T10:36:36.789Z,25.67
2023-02-24T10:39:26.589Z,22.15
2023-02-24T10:42:16.203Z,19.27
2023-02-24T10:45:02.256Z,19.57
2023-02-24T10:47:31.756Z,20.25
2023-02-24T10:50:05.504Z,18.48
2023-02-24T10:52:58.173Z,22.75
2023-02-24T10:55:47.287Z,23.25
2023-02-24T10:58:28.703Z,21.90
2023-02-24T11:01:18.397Z,20.58
2023-02-24T11:04:22.519Z,22.30
2023-02-24T11:06:55.521Z,23.02
2023-02-24T11:09:27.768Z,26.77
2023-02-24T11:12:26.003Z,27.90
2023-02-24T11:15:23.522Z,22.88
2023-02-24T11:17:59.863Z,23.55
2023-02-24T11:20:52.067Z,27.90
2023-02-24T11:23:42.191Z,23.92
2023-02-24T11:26:40.660Z,28.02
2023-02-24T11:30:15.080Z,21.90
2023-02-24T11:33:17.361Z,29.45
2023-02-24T11:36:30.660Z,26.40
2023-02-24T11:39:42.597Z,26.55
2023-02-24T11:42:46.155Z,28.17
2023-02-24T11:45:50.747Z,24.25
2023-02-24T11:48:41.493Z,23.33
2023-02-24T11:51:37.031Z,32.17
2023-02-24T11:54:15.265Z,25.80
2023-02-24T11:56:53.226Z,26.20
2023-02-24T11:59:54.450Z,21.67
2023-02-24T12:03:16.011Z,25.15
2023-02-24T12:05:53.692Z,26.13
2023-02-24T12:08:39.466Z,20.23
2023-02-24T12:11:32.972Z,23.45
2023-02-24T12:15:04.679Z,24.30
2023-02-24T12:17:58.045Z,18.60
2023-02-24T12:21:00.585Z,21.38
2023-02-24T12:23:45.092Z,18.65
2023-02-24T12:27:20.261Z,20.17
2023-02-24T12:30:50.834Z,20.73
2023-02-24T12:33:56.644Z,25.92
2023-02-24T12:37:24.601Z,22.08
2023-02-24T12:40:54.793Z,22.17
2023-02-24T12:44:22.430Z,22.48
2023-02-24T12:47:21.155Z,19.95
2023-02-24T12:50:27.832Z,23.35
2023-02-24T12:53:13.269Z,20.95
2023-02-24T12:56:06.313Z,18.23
2023-02-24T12:58:42.364Z,23.10
2023-02-24T13:01:51.486Z,34.45
2023-02-24T13:05:02.280Z,24.02
2023-02-24T13:07:39.870Z,24.52
2023-02-24T13:10:38.714Z,18.33
2023-02-24T13:13:50.445Z,21.52
2023-02-24T13:16:35.124Z,22.35
2023-02-24T13:19:30.109Z,20.40
2023-02-24T13:22:25.649Z,21.10
2023-02-24T13:25:07.552Z,22.52
2023-02-24T13:27:42.895Z,21.45
2023-02-24T13:30:17.784Z,25.42
2023-02-24T13:32:59.575Z,19.73
2023-02-24T13:35:26.743Z,18.63
2023-02-24T13:37:54.736Z,20.20
2023-02-24T13:40:28.110Z,19.58
2023-02-24T13:42:58.885Z,16.92
2023-02-24T13:45:32.446Z,25.25
2023-02-24T13:48:56.335Z,24.88
2023-02-24T13:51:59.345Z,15.95
2023-02-24T13:55:18.209Z,23.50
2023-02-24T13:58:38.627Z,20.13
2023-02-24T14:01:17.973Z,21.08
2023-02-24T14:04:21.264Z,23.90
2023-02-24T14:07:03.394Z,20.55
2023-02-24T14:09:51.299Z,28.40
2023-02-24T14:12:28.702Z,25.63
2023-02-24T14:14:56.849Z,20.02
2023-02-24T14:17:37.089Z,22.25
2023-02-24T14:20:10.213Z,23.73
2023-02-24T14:22:55.610Z,23.85
2023-02-24T14:25:24.840Z,22.05
2023-02-24T14:27:56.333Z,24.17
2023-02-24T14:30:38.207Z,21.45
2023-02-24T14:33:20.223Z,23.92
2023-02-24T14:35:49.019Z,20.83
2023-02-24T14:38:41.066Z,23.20
2023-02-24T14:41:26.104Z,25.67
2023-02-24T14:43:55.329Z,19.20
2023-02-24T14:46:24.249Z,21.15
2023-02-24T14:48:56.333Z,19.92
2023-02-24T14:51:36.225Z,24.90
2023-02-24T14:54:12.167Z,25.45
2023-02-24T14:56:41.470Z,23.33
2023-02-24T14:59:32.874Z,20.48
2023-02-24T15:02:02.732Z,24.30
2023-02-24T15:04:43.771Z,19.88
2023-02-24T15:07:34.846Z,27.75
2023-02-24T15:10:06.618Z,23.10
2023-02-24T15:12:49.014Z,21.80
2023-02-24T15:15:30.783Z,20.77
2023-02-24T15:18:17.544Z,23.77
2023-02-24T15:20:44.882Z,21.08
2023-02-24T15:23:37.850Z,18.42
2023-02-24T15:26:24.211Z,24.30
2023-02-24T15:29:13.499Z,19.88
2023-02-24T15:31:47.182Z,24.88
2023-02-24T15:34:26.180Z,25.52
2023-02-24T15:37:04.352Z,30.50
2023-02-24T15:39:34.269Z,24.58
2023-02-24T15:42:34.754Z,21.77
2023-02-24T15:45:25.023Z,21.20
2023-02-24T15:47:59.235Z,25.13
2023-02-24T15:50:28.643Z,23.80
2023-02-24T15:53:03.602Z,21.50
2023-02-24T15:55:32.595Z,18.90
2023-02-24T15:58:03.394Z,26.25
2023-02-24T16:00:31.374Z,23.77
2023-02-24T16:02:59.043Z,20.05
2023-02-24T16:05:26.915Z,21.63
2023-02-24T16:07:54.905Z,23.88
2023-02-24T16:10:29.279Z,26.40
2023-02-24T16:13:01.570Z,24.23
2023-02-24T16:15:37.196Z,22.02
2023-02-24T16:18:14.113Z,24.02
2023-02-24T16:20:41.760Z,19.52
2023-02-24T16:23:10.984Z,28.85
2023-02-24T16:25:45.032Z,20.98
2023-02-24T16:28:21.368Z,25.35
2023-02-24T16:30:51.211Z,19.35
2023-02-24T16:33:23.978Z,21.70
2023-02-24T16:35:54.804Z,32.92
2023-02-24T16:38:26.656Z,23.88
2023-02-24T16:40:55.410Z,22.50
2023-02-24T16:43:22.698Z,27.63
2023-02-24T16:45:52.736Z,23.15
2023-02-24T16:48:26.260Z,24.58
2023-02-24T16:50:54.414Z,28.80
2023-02-24T16:53:24.399Z,24.55
2023-02-24T16:55:52.157Z,34.50
2023-02-24T16:58:20.006Z,31.23
2023-02-24T17:00:52.299Z,27.45
2023-02-24T17:03:45.021Z,25.60
2023-02-24T17:06:12.389Z,27.02
2023-02-24T17:08:43.407Z,34.65
2023-02-24T17:11:21.817Z,33.17
2023-02-24T17:13:49.299Z,29.88
2023-02-24T17:16:16.631Z,33.70
2023-02-24T17:18:43.980Z,30.60
2023-02-24T17:21:14.492Z,24.52
2023-02-24T17:26:15.334Z,26.23
2023-02-24T17:28:43.242Z,28.42
2023-02-24T17:31:10.813Z,26.58
2023-02-24T17:33:38.225Z,29.15
2023-02-24T17:36:05.965Z,23.98
2023-02-24T17:38:33.574Z,30.55
2023-02-24T17:41:02.302Z,25.55
2023-02-24T17:43:29.697Z,22.63
2023-02-24T17:45:57.090Z,21.65
2023-02-24T17:48:24.616Z,28.25
2023-02-24T17:50:52.037Z,28.88
2023-02-24T17:53:19.344Z,24.02
2023-02-24T17:56:02.022Z,21.17
2023-02-24T17:58:31.468Z,24.40
2023-02-24T18:00:59.127Z,24.55
2023-02-24T18:03:26.510Z,25.08
2023-02-24T18:06:20.462Z,26.08
2023-02-24T18:08:48.050Z,21.70
2023-02-24T18:11:19.502Z,29.85
2023-02-24T18:13:50.731Z,22.65
2023-02-24T18:16:18.142Z,25.73
2023-02-24T18:18:45.784Z,18.45
2023-02-24T18:21:13.120Z,20.80
2023-02-24T18:23:41.437Z,19.58
2023-02-24T18:26:12.639Z,26.85
2023-02-24T18:28:40.071Z,21.83
2023-02-24T18:31:21.875Z,24.98
2023-02-24T18:33:50.223Z,19.27
2023-02-24T18:36:18.985Z,25.40
2023-02-24T18:38:46.589Z,22.05
2023-02-24T18:41:19.871Z,20.08
2023-02-24T18:43:55.351Z,19.52
2023-02-24T18:46:25.038Z,26.58
2023-02-24T18:48:52.990Z,31.17
2023-02-24T18:51:26.541Z,25.40
2023-02-24T18:53:54.463Z,18.38
2023-02-24T18:56:28.915Z,28.30
2023-02-24T18:59:00.447Z,20.27
2023-02-24T19:01:41.141Z,22.80
2023-02-24T19:04:09.435Z,17.38
2023-02-24T19:06:37.475Z,22.67
2023-02-24T19:09:10.856Z,15.02
2023-02-24T19:11:40.868Z,15.77
2023-02-24T19:14:12.015Z,18.00
2023-02-24T19:16:40.240Z,23.50
2023-02-24T19:19:08.234Z,15.48
2023-02-24T19:21:35.885Z,18.65
2023-02-24T19:24:08.027Z,28.38
2023-02-24T19:26:35.529Z,21.02
2023-02-24T19:29:03.961Z,23.60
2023-02-24T19:31:34.269Z,26.98
2023-02-24T19:34:10.120Z,21.85
2023-02-24T19:36:38.608Z,25.52
2023-02-24T19:39:13.214Z,26.13
2023-02-24T19:41:41.278Z,22.25
2023-02-24T19:44:10.206Z,25.25
2023-02-24T19:46:38.977Z,30.77
2023-02-24T19:49:06.832Z,21.85
2023-02-24T19:51:35.551Z,17.55
2023-02-24T19:54:05.862Z,24.88
2023-02-24T19:56:36.916Z,17.23
2023-02-24T19:59:11.343Z,31.92
2023-02-24T20:01:38.749Z,22.75
2023-02-24T20:04:07.049Z,23.08
2023-02-24T20:06:43.693Z,18.88
2023-02-24T20:09:21.324Z,16.17
2023-02-24T20:11:51.183Z,22.48
2023-02-24T20:14:20.541Z,21.67
2023-02-24T20:16:48.402Z,22.13
2023-02-24T20:19:17.305Z,16.95
2023-02-24T20:21:44.685Z,18.02
2023-02-24T20:24:16.515Z,18.80
2023-02-24T20:26:49.550Z,17.90
2023-02-24T20:29:21.469Z,23.67
2023-02-24T20:31:49.709Z,22.45
2023-02-24T20:34:17.791Z,17.85
2023-02-24T20:36:45.124Z,22.77
2023-02-24T20:39:12.556Z,15.63
2023-02-24T20:41:40.787Z,23.77
2023-02-24T20:44:08.628Z,21.48
2023-02-24T20:46:36.187Z,20.13
2023-02-24T20:49:08.779Z,23.77
2023-02-24T20:51:38.558Z,19.70
2023-02-24T20:54:09.651Z,21.00
2023-02-24T20:56:41.634Z,20.05
2023-02-24T20:59:21.998Z,21.98
2023-02-24T21:01:50.791Z,19.00
2023-02-24T21:04:21.554Z,23.40
2023-02-24T21:06:51.480Z,17.83
2023-02-24T21:09:18.833Z,18.67
2023-02-24T21:11:46.207Z,22.55
2023-02-24T21:14:17.600Z,20.13
2023-02-24T21:16:46.251Z,22.85
2023-02-24T21:19:13.803Z,17.25
2023-02-24T21:21:41.199Z,17.88
2023-02-24T21:24:08.857Z,28.50
2023-02-24T21:26:36.196Z,18.80
2023-02-24T21:29:03.642Z,20.17
2023-02-24T21:31:30.999Z,19.33
2023-02-24T21:33:58.374Z,23.50
2023-02-24T21:36:27.689Z,18.33
2023-02-24T21:38:55.668Z,18.15
2023-02-24T21:41:24.041Z,20.13
2023-02-24T21:43:55.941Z,19.63
